createdAt,value
2022-09-17T00:01:36.119Z,3.50
2022-09-17T00:11:45.356Z,3.40
2022-09-17T00:21:53.012Z,3.50
2022-09-17T00:32:00.178Z,5.00
2022-09-17T00:42:10.938Z,4.30
2022-09-17T00:52:18.796Z,4.20
2022-09-17T01:02:26.270Z,3.90
2022-09-17T01:12:47.905Z,3.60
2022-09-17T01:22:58.269Z,3.20
2022-09-17T01:33:12.669Z,3.40
2022-09-17T01:43:18.068Z,4.00
2022-09-17T01:53:26.956Z,4.10
2022-09-17T02:03:36.898Z,5.30
2022-09-17T02:13:42.215Z,5.70
2022-09-17T02:23:50.099Z,4.60
2022-09-17T02:34:02.502Z,4.60
2022-09-17T02:44:08.523Z,3.60
2022-09-17T02:54:19.485Z,4.00
2022-09-17T03:04:28.828Z,4.00
2022-09-17T03:14:36.564Z,4.40
2022-09-17T03:24:43.988Z,4.20
2022-09-17T03:34:50.561Z,4.50
2022-09-17T03:44:56.981Z,4.40
2022-09-17T03:55:05.109Z,4.20
2022-09-17T04:05:13.158Z,5.90
2022-09-17T04:15:20.228Z,5.80
2022-09-17T04:25:27.380Z,5.90
2022-09-17T04:35:33.643Z,5.30
2022-09-17T04:45:40.971Z,4.50
2022-09-17T04:55:48.987Z,4.80
2022-09-17T05:05:56.130Z,3.80
2022-09-17T05:16:03.678Z,4.40
2022-09-17T05:26:10.954Z,4.10
2022-09-17T05:36:18.573Z,4.50
2022-09-17T05:46:26.146Z,4.90
2022-09-17T05:56:33.500Z,7.20
2022-09-17T06:06:41.894Z,5.60
2022-09-17T06:16:49.253Z,4.70
2022-09-17T06:26:56.819Z,5.30
2022-09-17T06:37:04.155Z,4.20
2022-09-17T06:47:11.290Z,3.30
2022-09-17T06:57:18.452Z,3.10
2022-09-17T07:07:25.575Z,2.80
2022-09-17T07:17:33.123Z,2.50
2022-09-17T07:27:40.208Z,2.50
2022-09-17T07:37:47.636Z,2.30
2022-09-17T07:47:54.843Z,2.90
2022-09-17T07:58:02.216Z,2.80
2022-09-17T08:08:09.930Z,2.90
2022-09-17T08:18:17.734Z,3.20
2022-09-17T08:28:25.674Z,2.10
2022-09-17T08:38:38.028Z,3.00
2022-09-17T08:48:50.324Z,3.70
2022-09-17T08:59:00.958Z,3.80
2022-09-17T09:09:14.396Z,3.40
2022-09-17T09:19:21.436Z,4.30
2022-09-17T09:29:26.538Z,3.00
2022-09-17T09:39:41.187Z,3.60
2022-09-17T09:50:08.339Z,3.50
2022-09-17T10:00:29.335Z,3.10
2022-09-17T10:10:38.200Z,2.00
2022-09-17T10:20:58.295Z,3.00
2022-09-17T10:31:10.627Z,2.30
2022-09-17T10:41:22.033Z,2.20
2022-09-17T10:51:29.178Z,3.50
2022-09-17T11:01:35.811Z,2.90
2022-09-17T11:11:43.271Z,3.00
2022-09-17T11:21:50.958Z,2.80
2022-09-17T11:32:03.623Z,3.40
2022-09-17T11:42:12.064Z,2.20
2022-09-17T11:52:25.636Z,3.80
2022-09-17T12:02:35.426Z,4.90
2022-09-17T12:12:50.544Z,3.40
2022-09-17T12:22:58.526Z,3.80
2022-09-17T12:33:24.262Z,2.50
2022-09-17T12:43:44.737Z,2.90
2022-09-17T12:53:59.473Z,3.40
2022-09-17T13:04:15.954Z,4.20
2022-09-17T13:14:25.607Z,3.90
2022-09-17T13:24:34.686Z,4.10
2022-09-17T13:34:41.793Z,4.00
2022-09-17T13:44:53.535Z,4.10
2022-09-17T13:55:01.202Z,3.70
2022-09-17T14:05:35.751Z,4.00
2022-09-17T14:16:24.561Z,4.00
2022-09-17T14:27:04.355Z,3.20
2022-09-17T14:37:10.114Z,4.90
2022-09-17T14:47:18.874Z,4.30
2022-09-17T15:07:30.533Z,6.30
2022-09-17T15:17:37.942Z,4.10
2022-09-17T15:27:47.302Z,3.90
2022-09-17T15:38:21.294Z,4.20
2022-09-17T15:48:39.731Z,8.30
2022-09-17T15:58:53.014Z,6.00
2022-09-17T16:09:01.035Z,5.70
2022-09-17T16:19:08.686Z,7.00
2022-09-17T16:29:15.638Z,8.00
2022-09-17T16:39:22.890Z,8.00
2022-09-17T16:49:30.469Z,8.70
2022-09-17T16:59:37.748Z,8.30
2022-09-17T17:09:45.192Z,9.00
2022-09-17T17:19:53.176Z,9.20
2022-09-17T17:29:59.984Z,6.90
2022-09-17T17:40:09.312Z,4.70
2022-09-17T17:50:16.179Z,3.20
2022-09-17T18:00:23.764Z,3.10
2022-09-17T18:10:43.458Z,3.30
2022-09-17T18:20:51.059Z,4.30
2022-09-17T18:30:59.301Z,3.20
2022-09-17T18:41:05.038Z,3.80
2022-09-17T18:51:13.167Z,3.40
2022-09-17T19:01:22.628Z,2.80
2022-09-17T19:11:30.810Z,2.00
2022-09-17T19:21:37.882Z,2.20
2022-09-17T19:31:45.322Z,3.00
2022-09-17T19:41:52.799Z,3.90
2022-09-17T19:52:00.565Z,4.20
2022-09-17T20:02:07.926Z,3.90
2022-09-17T20:12:15.585Z,3.50
2022-09-17T20:22:23.161Z,3.80
2022-09-17T20:32:30.513Z,2.80
2022-09-17T20:42:37.741Z,3.50
2022-09-17T20:52:45.351Z,3.30
2022-09-17T21:02:54.604Z,3.80
2022-09-17T21:23:08.362Z,3.70
2022-09-17T21:33:22.129Z,4.10
2022-09-17T21:43:31.148Z,3.80
2022-09-17T21:53:39.008Z,3.50
2022-09-17T22:03:47.634Z,3.30
2022-09-17T22:13:59.109Z,2.60
2022-09-17T22:24:05.901Z,2.40
2022-09-17T22:34:14.597Z,2.00
2022-09-17T22:44:22.507Z,2.40
2022-09-17T22:54:29.832Z,2.50
2022-09-17T23:04:36.977Z,2.30
2022-09-17T23:14:44.068Z,2.60
2022-09-17T23:24:51.130Z,2.20
2022-09-17T23:34:58.178Z,2.30
2022-09-17T23:45:06.263Z,2.80
2022-09-17T23:55:12.677Z,1.70
